createdAt,value
2019-06-01T00:04:54.899Z,89.54
2019-06-01T00:10:00.860Z,89.36
2019-06-01T00:15:08.055Z,89.09
2019-06-01T00:20:14.453Z,89.61
2019-06-01T00:25:20.398Z,90.19
2019-06-01T00:30:27.523Z,89.41
2019-06-01T00:35:33.890Z,89.89
2019-06-01T00:40:40.091Z,90.22
2019-06-01T00:45:46.581Z,89.79
2019-06-01T00:50:53.195Z,89.17
2019-06-01T00:55:59.415Z,89.81
2019-06-01T01:01:05.283Z,88.22
2019-06-01T01:06:11.254Z,88.73
2019-06-01T01:11:17.115Z,89.51
2019-06-01T01:16:23.091Z,87.80
2019-06-01T01:21:28.891Z,86.64
2019-06-01T01:26:34.731Z,86.37
2019-06-01T01:31:40.595Z,86.14
2019-06-01T01:36:47.592Z,85.68
2019-06-01T01:41:54.278Z,85.25
2019-06-01T01:47:01.478Z,84.88
2019-06-01T01:52:07.674Z,84.54
2019-06-01T01:57:13.822Z,84.22
2019-06-01T02:02:19.691Z,84.38
2019-06-01T02:07:25.667Z,84.67
2019-06-01T02:12:31.632Z,85.33
2019-06-01T02:17:37.712Z,85.30
2019-06-01T02:22:43.682Z,86.07
2019-06-01T02:27:49.656Z,85.75
2019-06-01T02:32:56.319Z,84.97
2019-06-01T02:38:03.670Z,84.92
2019-06-01T02:43:10.434Z,84.61
2019-06-01T02:48:16.303Z,84.27
2019-06-01T02:53:22.099Z,84.53
2019-06-01T02:58:28.147Z,84.72
2019-06-01T03:03:34.215Z,84.48
2019-06-01T03:08:40.697Z,84.48
2019-06-01T03:13:50.256Z,84.93
2019-06-01T03:19:01.920Z,85.33
2019-06-01T03:24:13.380Z,85.55
2019-06-01T03:29:21.785Z,86.19
2019-06-01T03:34:26.913Z,86.26
2019-06-01T03:39:33.320Z,83.57
2019-06-01T03:44:39.387Z,80.94
2019-06-01T03:49:46.279Z,77.03
2019-06-01T03:54:52.271Z,71.63
2019-06-01T03:59:58.218Z,72.15
2019-06-01T04:05:05.629Z,70.87
2019-06-01T04:10:12.228Z,71.19
2019-06-01T04:15:18.256Z,70.22
2019-06-01T04:20:24.151Z,68.74
2019-06-01T04:25:31.663Z,67.44
2019-06-01T04:30:37.735Z,68.30
2019-06-01T04:35:43.710Z,68.10
2019-06-01T04:40:49.678Z,66.98
2019-06-01T04:45:55.548Z,67.38
2019-06-01T04:51:01.521Z,67.85
2019-06-01T04:56:09.038Z,65.78
2019-06-01T05:01:15.184Z,63.57
2019-06-01T05:06:21.171Z,67.21
2019-06-01T05:11:27.283Z,66.36
2019-06-01T05:16:33.245Z,65.71
2019-06-01T05:21:39.288Z,64.65
2019-06-01T05:26:45.258Z,64.71
2019-06-01T05:31:51.140Z,65.49
2019-06-01T05:36:56.903Z,65.15
2019-06-01T05:42:02.970Z,65.08
2019-06-01T05:47:10.044Z,64.58
2019-06-01T05:52:16.687Z,65.75
2019-06-01T05:57:23.288Z,63.48
2019-06-01T06:02:29.412Z,62.72
2019-06-01T06:07:35.894Z,62.28
2019-06-01T06:12:41.863Z,63.34
2019-06-01T06:17:47.976Z,65.18
2019-06-01T06:22:54.013Z,65.62
2019-06-01T06:28:01.214Z,63.53
2019-06-01T06:33:08.209Z,65.35
2019-06-01T06:38:15.577Z,63.84
2019-06-01T06:43:28.882Z,62.79
2019-06-01T06:48:29.291Z,62.97
2019-06-01T06:53:35.682Z,66.98
2019-06-01T06:58:41.746Z,64.95
2019-06-01T07:03:47.721Z,65.47
2019-06-01T07:08:53.630Z,64.69
2019-06-01T07:13:59.679Z,62.49
2019-06-01T07:19:06.956Z,64.78
2019-06-01T07:24:12.936Z,64.19
2019-06-01T07:29:19.949Z,61.64
2019-06-01T07:34:35.881Z,63.64
2019-06-01T07:39:33.722Z,63.84
2019-06-01T07:44:39.592Z,63.33
2019-06-01T07:49:46.062Z,64.62
2019-06-01T07:54:52.240Z,66.34
2019-06-01T07:59:58.795Z,65.77
2019-06-01T08:05:07.356Z,65.04
2019-06-01T08:10:13.463Z,63.16
2019-06-01T08:15:19.505Z,64.19
2019-06-01T08:20:26.037Z,62.08
2019-06-01T08:25:32.810Z,61.77
2019-06-01T08:30:39.070Z,63.56
2019-06-01T08:35:45.017Z,61.77
2019-06-01T08:40:50.894Z,62.55
2019-06-01T08:45:56.968Z,64.98
2019-06-01T08:51:03.037Z,63.20
2019-06-01T08:56:09.110Z,63.30
2019-06-01T09:01:15.010Z,64.54
2019-06-01T09:06:20.950Z,63.80
2019-06-01T09:11:27.089Z,65.06
2019-06-01T09:16:33.548Z,65.34
2019-06-01T09:21:39.579Z,65.01
2019-06-01T09:26:45.857Z,64.99
2019-06-01T09:31:51.830Z,66.46
2019-06-01T09:36:57.796Z,63.78
2019-06-01T09:42:03.770Z,63.08
2019-06-01T09:47:09.838Z,61.93
2019-06-01T09:52:15.915Z,63.41
2019-06-01T09:57:21.893Z,63.70
2019-06-01T10:02:28.131Z,62.26
2019-06-01T10:07:34.845Z,61.18
2019-06-01T10:12:42.237Z,61.93
2019-06-01T10:17:48.636Z,62.03
2019-06-01T10:22:54.548Z,60.73
2019-06-01T10:28:00.579Z,60.84
2019-06-01T10:33:07.781Z,59.36
2019-06-01T10:38:13.750Z,60.94
2019-06-01T10:43:19.619Z,61.40
2019-06-01T10:48:25.589Z,60.25
2019-06-01T10:53:32.072Z,60.37
2019-06-01T10:58:55.713Z,58.68
2019-06-01T11:03:46.374Z,60.12
2019-06-01T11:08:52.435Z,61.33
2019-06-01T11:13:58.418Z,60.04
2019-06-01T11:19:04.514Z,60.38
2019-06-01T11:24:10.756Z,59.10
2019-06-01T11:29:16.737Z,59.02
2019-06-01T11:34:22.816Z,61.11
2019-06-01T11:39:29.089Z,60.00
2019-06-01T11:44:35.159Z,60.36
2019-06-01T11:49:41.235Z,59.02
2019-06-01T11:54:47.271Z,60.96
2019-06-01T11:59:53.372Z,58.40
2019-06-01T12:04:59.388Z,59.63
2019-06-01T12:10:08.646Z,58.29
2019-06-01T12:15:15.801Z,59.81
2019-06-01T12:20:21.975Z,57.44
2019-06-01T12:25:28.046Z,57.48
2019-06-01T12:30:34.234Z,59.14
2019-06-01T12:35:40.203Z,58.82
2019-06-01T12:40:47.327Z,59.29
2019-06-01T12:46:06.670Z,56.33
2019-06-01T12:51:00.430Z,58.71
2019-06-01T12:56:06.426Z,58.92
2019-06-01T13:01:12.535Z,58.63
2019-06-01T13:06:19.507Z,55.76
2019-06-01T13:11:25.572Z,57.76
2019-06-01T13:16:31.643Z,55.85
2019-06-01T13:21:37.510Z,56.13
2019-06-01T13:26:43.800Z,56.58
2019-06-01T13:31:50.499Z,55.32
2019-06-01T13:36:56.662Z,55.30
2019-06-01T13:42:02.741Z,55.33
2019-06-01T13:47:08.805Z,54.32
2019-06-01T13:52:14.768Z,52.95
2019-06-01T13:57:20.846Z,55.16
2019-06-01T14:02:27.127Z,54.82
2019-06-01T14:07:33.195Z,53.40
2019-06-01T14:12:39.207Z,53.04
2019-06-01T14:17:45.966Z,53.91
2019-06-01T14:22:52.052Z,52.47
2019-06-01T14:27:58.319Z,54.17
2019-06-01T14:33:04.577Z,55.36
2019-06-01T14:38:11.097Z,54.70
2019-06-01T14:43:17.039Z,53.67
2019-06-01T14:48:23.110Z,52.79
2019-06-01T14:53:29.090Z,54.62
2019-06-01T14:58:35.106Z,54.55
2019-06-01T15:03:41.228Z,52.09
2019-06-01T15:09:07.701Z,53.82
2019-06-01T15:13:54.481Z,52.62
2019-06-01T15:19:00.474Z,53.53
2019-06-01T15:24:07.059Z,52.39
2019-06-01T15:29:13.130Z,51.91
2019-06-01T15:34:19.332Z,53.78
2019-06-01T15:39:25.709Z,51.55
2019-06-01T15:44:31.756Z,52.86
2019-06-01T15:49:37.725Z,52.74
2019-06-01T15:54:43.698Z,53.48
2019-06-01T15:59:49.673Z,53.24
2019-06-01T16:04:56.759Z,54.36
2019-06-01T16:10:06.495Z,54.99
2019-06-01T16:15:10.698Z,53.84
2019-06-01T16:20:17.872Z,54.54
2019-06-01T16:25:23.959Z,53.98
2019-06-01T16:30:30.101Z,54.38
2019-06-01T16:35:36.077Z,53.68
2019-06-01T16:40:42.862Z,55.14
2019-06-01T16:45:48.936Z,55.15
2019-06-01T16:50:55.530Z,55.37
2019-06-01T16:56:02.039Z,55.86
2019-06-01T17:01:08.245Z,55.46
2019-06-01T17:06:14.260Z,55.71
2019-06-01T17:11:20.339Z,55.69
2019-06-01T17:16:26.456Z,55.34
2019-06-01T17:21:32.726Z,54.94
2019-06-01T17:26:38.668Z,53.90
2019-06-01T17:31:53.846Z,53.42
2019-06-01T17:36:51.382Z,53.85
2019-06-01T17:41:57.230Z,55.40
2019-06-01T17:47:04.599Z,56.41
2019-06-01T17:52:11.854Z,56.88
2019-06-01T17:57:17.898Z,57.04
2019-06-01T18:02:24.131Z,57.70
2019-06-01T18:07:30.201Z,58.62
2019-06-01T18:12:36.288Z,59.19
2019-06-01T18:17:42.675Z,59.95
2019-06-01T18:22:48.835Z,60.26
2019-06-01T18:27:56.542Z,60.46
2019-06-01T18:33:03.048Z,61.08
2019-06-01T18:38:09.839Z,62.03
2019-06-01T18:43:18.856Z,62.45
2019-06-01T18:48:25.143Z,62.32
2019-06-01T18:53:31.213Z,65.85
2019-06-01T18:58:37.281Z,72.46
2019-06-01T19:03:43.257Z,79.24
2019-06-01T19:08:52.435Z,79.81
2019-06-01T19:13:58.574Z,81.37
2019-06-01T19:19:05.947Z,82.17
2019-06-01T19:24:12.674Z,82.94
2019-06-01T19:29:18.741Z,82.99
2019-06-01T19:34:25.119Z,82.91
2019-06-01T19:39:39.738Z,83.18
2019-06-01T19:44:45.984Z,83.27
2019-06-01T19:49:51.965Z,83.15
2019-06-01T19:54:57.979Z,83.42
2019-06-01T20:00:05.932Z,83.53
2019-06-01T20:05:14.659Z,83.42
2019-06-01T20:10:21.155Z,83.68
2019-06-01T20:15:27.223Z,83.67
2019-06-01T20:20:33.191Z,83.63
2019-06-01T20:25:39.271Z,83.70
2019-06-01T20:30:45.954Z,84.04
2019-06-01T20:35:51.933Z,84.30
2019-06-01T20:40:58.001Z,84.50
2019-06-01T20:46:04.076Z,84.49
2019-06-01T20:51:10.141Z,84.43
2019-06-01T20:56:17.365Z,84.61
2019-06-01T21:01:23.953Z,84.82
2019-06-01T21:06:30.103Z,85.37
2019-06-01T21:11:36.074Z,85.18
2019-06-01T21:16:42.049Z,85.25
2019-06-01T21:21:47.783Z,85.33
2019-06-01T21:26:53.679Z,85.42
2019-06-01T21:31:59.662Z,85.88
2019-06-01T21:37:05.641Z,86.16
2019-06-01T21:42:11.930Z,86.05
2019-06-01T21:47:17.867Z,86.10
2019-06-01T21:52:24.253Z,86.15
2019-06-01T21:57:30.447Z,85.90
2019-06-01T22:02:36.501Z,86.01
2019-06-01T22:07:42.405Z,86.13
2019-06-01T22:12:48.337Z,85.84
2019-06-01T22:17:54.416Z,86.36
2019-06-01T22:23:00.609Z,86.61
2019-06-01T22:28:06.656Z,87.20
2019-06-01T22:33:12.529Z,86.63
2019-06-01T22:38:19.556Z,86.27
2019-06-01T22:43:40.689Z,86.33
2019-06-01T22:48:33.202Z,86.61
2019-06-01T22:53:39.391Z,86.28
2019-06-01T22:58:45.455Z,86.10
2019-06-01T23:03:51.319Z,86.02
2019-06-01T23:08:57.440Z,86.07
2019-06-01T23:14:04.080Z,86.12
2019-06-01T23:19:10.056Z,86.34
2019-06-01T23:24:16.123Z,86.30
2019-06-01T23:29:22.314Z,86.27
2019-06-01T23:34:28.745Z,86.34
2019-06-01T23:39:34.756Z,86.54
2019-06-01T23:44:40.731Z,86.59
2019-06-01T23:49:46.699Z,86.24
2019-06-01T23:54:52.576Z,86.24
2019-06-01T23:59:58.540Z,85.94
